Terminal Aerodrome Forecast
Issued by NWS Mt. Holly, NJ

Home | Current Version | Previous Version | Text Only | Print | Product List | Glossary On
Versions: 1 2 3 4 5 6 7 8 9 10 11 12 13
000
FTUS41 KPHI 050550
TAFILG
TAF
KILG 050550Z 0506/0606 17007KT 6SM -RA OVC040
      TEMPO 0507/0509 5SM -RA BR SCT015 OVC025
     FM050900 16005KT 3SM -RA BR OVC015
     FM051200 VRB04KT 3SM -DZ BR BKN009 OVC015
     FM051600 28009KT P6SM SCT015 BKN025
     FM051900 31012KT P6SM SCT030
     FM060000 32007KT P6SM FEW040=

USA.gov is the U.S. government's official web portal to all federal, state and local government web resources and services.